Time;durP1;ratioP1;P1;durP2;ratioP2;P2;SDS_P1;SDS_P2;PMS_P1;PMS_P2;Temp;Humidity;BMP_temperature;BMP_pressure;BME280_temperature;BME280_humidity;BME280_pressure;Samples;Min_cycle;Max_cycle;Signal;HPM_P1;HPM_P2
2023/01/03 00:01:22;;;;;;;22.77;13.18;;;3.80;99.90;;;;;;4989494;28;20041;-69
2023/01/03 00:03:48;;;;;;;16.85;11.95;;;3.80;99.90;;;;;;4991094;28;20050;-69
2023/01/03 00:06:35;;;;;;;16.17;11.50;;;3.80;99.90;;;;;;4991040;28;20057;-70
2023/01/03 00:09:03;;;;;;;21.85;13.55;;;3.80;99.90;;;;;;5008884;28;20085;-69
2023/01/03 00:14:22;;;;;;;22.80;13.85;;;3.80;99.90;;;;;;4996356;28;20142;-69
2023/01/03 00:16:50;;;;;;;22.20;12.95;;;3.80;99.90;;;;;;5008580;28;20069;-70
2023/01/03 00:19:16;;;;;;;;;;;3.80;99.90;;;;;;4990427;28;20057;-69
2023/01/03 00:21:42;;;;;;;18.80;12.73;;;3.70;99.90;;;;;;5004868;28;19921;-70
2023/01/03 00:24:08;;;;;;;22.48;13.10;;;3.70;99.90;;;;;;5008718;28;20038;-69
2023/01/03 00:26:36;;;;;;;20.63;13.90;;;3.70;99.90;;;;;;4990266;28;20124;-70
2023/01/03 00:29:02;;;;;;;22.97;15.00;;;3.70;99.90;;;;;;5008434;28;20057;-70
2023/01/03 00:31:28;;;;;;;42.08;16.73;;;3.70;99.90;;;;;;5007936;28;20046;-70
2023/01/03 00:33:54;;;;;;;22.92;13.38;;;3.70;99.90;;;;;;5007981;28;20049;-70
2023/01/03 00:36:19;;;;;;;21.45;13.75;;;3.70;99.90;;;;;;4989835;28;20054;-70
2023/01/03 00:38:45;;;;;;;22.00;15.18;;;3.70;99.90;;;;;;5007896;28;20588;-70
2023/01/03 00:41:14;;;;;;;29.52;15.85;;;3.70;99.90;;;;;;5007789;28;20438;-70
2023/01/03 00:43:41;;;;;;;27.73;15.75;;;3.60;99.90;;;;;;4990613;28;20046;-70
2023/01/03 00:46:10;;;;;;;26.90;16.55;;;3.60;99.90;;;;;;4990306;28;20314;-70
2023/01/03 00:48:36;;;;;;;25.58;16.45;;;3.60;99.90;;;;;;5007440;28;20050;-70
2023/01/03 00:51:14;;;;;;;25.33;17.25;;;3.60;99.90;;;;;;5007371;28;20052;-70
2023/01/03 00:53:41;;;;;;;31.25;17.20;;;3.60;99.90;;;;;;5007070;28;20052;-70
2023/01/03 00:56:12;;;;;;;24.80;17.80;;;3.60;99.90;;;;;;5007327;28;20050;-70
2023/01/03 00:58:38;;;;;;;33.60;18.00;;;3.70;99.90;;;;;;5007612;28;20081;-70
2023/01/03 01:01:19;;;;;;;28.10;20.05;;;3.60;99.90;;;;;;5007658;28;20050;-69
2023/01/03 01:03:48;;;;;;;29.90;18.45;;;3.60;99.90;;;;;;4990298;28;20054;-70
2023/01/03 01:06:17;;;;;;;28.48;18.42;;;3.60;99.90;;;;;;4989662;28;20050;-70
2023/01/03 01:08:43;;;;;;;28.00;17.23;;;3.60;99.90;;;;;;5007909;28;20053;-70
2023/01/03 01:11:10;;;;;;;27.08;19.38;;;3.60;99.90;;;;;;5006724;28;20060;-70
2023/01/03 01:13:37;;;;;;;27.67;18.30;;;3.60;99.90;;;;;;5007451;28;20061;-70
2023/01/03 01:16:14;;;;;;;26.42;18.10;;;3.60;99.90;;;;;;5003977;28;20130;-70
2023/01/03 01:18:43;;;;;;;27.08;17.20;;;3.60;99.90;;;;;;5006571;28;20056;-70
2023/01/03 01:21:11;;;;;;;23.90;17.20;;;3.60;99.90;;;;;;5007849;28;20056;-70
2023/01/03 01:23:39;;;;;;;26.63;19.40;;;3.70;99.90;;;;;;5006019;28;20061;-70
2023/01/03 01:26:07;;;;;;;26.83;18.73;;;3.70;99.90;;;;;;5007969;28;20085;-70
2023/01/03 01:28:33;;;;;;;37.15;20.70;;;3.70;99.90;;;;;;5008089;28;20128;-70
2023/01/03 01:31:00;;;;;;;38.45;22.30;;;3.70;99.90;;;;;;5007951;28;20042;-70
2023/01/03 01:33:26;;;;;;;29.10;20.02;;;3.80;99.90;;;;;;5007121;28;20049;-69
2023/01/03 01:35:52;;;;;;;35.67;22.17;;;3.80;99.90;;;;;;5007676;28;20076;-70
2023/01/03 01:38:18;;;;;;;33.80;20.13;;;3.80;99.90;;;;;;4985584;28;20046;-70
2023/01/03 01:40:44;;;;;;;33.92;21.70;;;3.90;99.90;;;;;;5005607;28;20056;-69
2023/01/03 01:46:15;;;;;;;40.45;22.52;;;3.90;99.90;;;;;;4989644;28;20066;-70
2023/01/03 01:48:41;;;;;;;36.10;21.92;;;3.90;99.90;;;;;;4993446;28;20166;-70
2023/01/03 01:51:08;;;;;;;34.08;20.92;;;3.90;99.90;;;;;;4999750;28;20081;-70
2023/01/03 01:53:37;;;;;;;31.33;20.50;;;3.90;99.90;;;;;;5006788;28;20065;-70
2023/01/03 01:56:05;;;;;;;;;;;3.90;99.90;;;;;;5006833;28;20856;-70
2023/01/03 01:58:35;;;;;;;30.92;20.92;;;3.90;99.90;;;;;;5007590;28;19944;-69
2023/01/03 02:01:07;;;;;;;31.55;21.73;;;3.90;99.90;;;;;;4989064;28;20048;-69
2023/01/03 02:03:33;;;;;;;33.70;20.90;;;3.90;99.90;;;;;;5006647;28;20053;-69
2023/01/03 02:06:01;;;;;;;34.60;22.45;;;3.90;99.90;;;;;;4998917;28;20045;-70
2023/01/03 02:08:27;;;;;;;33.03;19.63;;;3.80;99.90;;;;;;5005708;28;20465;-70
2023/01/03 02:11:02;;;;;;;31.45;19.67;;;3.80;99.90;;;;;;5005659;28;20081;-70
2023/01/03 02:13:44;;;;;;;39.78;21.67;;;3.80;99.90;;;;;;5006553;28;20605;-69
2023/01/03 02:16:19;;;;;;;38.38;20.35;;;3.70;99.90;;;;;;5002060;28;20080;-70
2023/01/03 02:19:21;;;;;;;43.50;23.10;;;3.80;99.90;;;;;;5006775;28;20069;-70
2023/01/03 02:22:24;;;;;;;32.53;19.83;;;3.70;99.90;;;;;;5003394;28;20456;-69
2023/01/03 02:24:56;;;;;;;35.20;20.55;;;3.70;99.90;;;;;;5004343;28;20498;-70
2023/01/03 02:27:48;;;;;;;32.42;19.33;;;3.60;99.90;;;;;;4988649;28;20092;-69
2023/01/03 02:30:29;;;;;;;34.53;21.50;;;3.60;99.90;;;;;;4975975;28;20058;-69
2023/01/03 02:33:30;;;;;;;31.77;21.35;;;3.50;99.90;;;;;;5007048;28;20415;-69
2023/01/03 02:36:04;;;;;;;29.45;19.42;;;3.50;99.90;;;;;;4975188;28;20052;-70
2023/01/03 02:38:40;;;;;;;32.17;20.55;;;3.50;99.90;;;;;;4984003;28;20050;-70
2023/01/03 02:41:19;;;;;;;38.25;21.20;;;3.40;99.90;;;;;;5006097;28;20801;-70
2023/01/03 02:44:09;;;;;;;28.20;20.10;;;3.40;99.90;;;;;;4985743;28;20042;-70
2023/01/03 02:46:57;;;;;;;40.13;21.92;;;3.40;99.90;;;;;;5003738;28;20095;-70
2023/01/03 02:49:45;;;;;;;34.08;21.38;;;3.40;99.90;;;;;;4989566;28;20046;-70
2023/01/03 02:52:15;;;;;;;29.73;21.17;;;3.40;99.90;;;;;;4974040;28;20074;-70
2023/01/03 02:54:48;;;;;;;31.90;20.67;;;3.30;99.90;;;;;;4992343;28;20411;-70
2023/01/03 02:57:21;;;;;;;34.60;22.63;;;3.40;99.90;;;;;;5007351;28;20103;-70
2023/01/03 02:59:52;;;;;;;30.33;21.23;;;3.40;99.90;;;;;;5007747;28;20045;-70
2023/01/03 03:02:21;;;;;;;35.20;23.30;;;3.40;99.90;;;;;;4991473;28;20049;-70
2023/01/03 03:04:51;;;;;;;42.28;23.83;;;3.30;99.90;;;;;;4995671;28;20124;-71
2023/01/03 03:07:27;;;;;;;17.88;10.48;;;3.30;99.90;;;;;;5009806;28;20049;-71
2023/01/03 03:15:35;;;;;;;33.97;21.70;;;3.30;99.90;;;;;;4984836;28;20502;-71
2023/01/03 03:18:13;;;;;;;35.10;22.15;;;3.30;99.90;;;;;;4990824;28;20050;-71
2023/01/03 03:26:19;;;;;;;34.47;23.63;;;3.30;99.90;;;;;;4988342;28;20066;-70
2023/01/03 03:28:49;;;;;;;41.20;24.55;;;3.30;99.90;;;;;;4990217;28;20057;-70
2023/01/03 03:31:29;;;;;;;39.80;24.50;;;3.30;99.90;;;;;;4991667;28;20867;-70
2023/01/03 03:34:07;;;;;;;35.70;23.73;;;3.30;99.90;;;;;;4991644;28;20049;-70
2023/01/03 03:37:10;;;;;;;35.75;24.50;;;3.30;99.90;;;;;;5006497;28;20111;-70
2023/01/03 03:45:37;;;;;;;44.45;24.63;;;3.20;99.90;;;;;;5008244;28;20077;-70
2023/01/03 03:48:18;;;;;;;39.65;24.42;;;3.20;99.90;;;;;;5008053;28;20054;-70
2023/01/03 03:51:10;;;;;;;42.92;24.00;;;3.20;99.90;;;;;;4987273;28;20065;-70
2023/01/03 03:53:38;;;;;;;37.17;22.40;;;3.10;99.90;;;;;;4990184;28;20058;-70
2023/01/03 03:56:12;;;;;;;36.83;23.50;;;3.10;99.90;;;;;;5007996;28;20061;-70
2023/01/03 03:58:43;;;;;;;34.00;21.27;;;3.00;99.90;;;;;;4991119;28;20577;-70
2023/01/03 04:01:14;;;;;;;29.30;21.20;;;3.00;99.90;;;;;;4980251;28;20046;-70
2023/01/03 04:03:42;;;;;;;37.30;20.85;;;2.90;99.90;;;;;;5008644;28;20521;-70
2023/01/03 04:06:16;;;;;;;21.40;11.15;;;2.90;99.90;;;;;;5008305;28;20073;-70
2023/01/03 04:08:42;;;;;;;37.60;21.40;;;2.80;99.90;;;;;;5008167;28;20684;-70
2023/01/03 04:11:07;;;;;;;32.70;21.85;;;2.80;99.90;;;;;;5007071;28;20069;-70
2023/01/03 04:13:35;;;;;;;27.40;21.08;;;2.70;99.90;;;;;;5007456;28;20186;-70
2023/01/03 04:16:01;;;;;;;34.72;21.83;;;2.70;99.90;;;;;;5003557;28;20048;-70
2023/01/03 04:18:28;;;;;;;34.85;21.02;;;2.70;99.90;;;;;;5007597;28;20050;-70
2023/01/03 04:20:53;;;;;;;29.98;19.02;;;2.60;99.90;;;;;;5007650;28;20076;-70
2023/01/03 04:23:20;;;;;;;26.63;19.85;;;2.60;99.90;;;;;;4990918;28;20049;-70
2023/01/03 04:25:48;;;;;;;29.45;21.00;;;2.60;99.90;;;;;;5007705;28;20056;-70
2023/01/03 04:28:14;;;;;;;36.72;22.98;;;2.60;99.90;;;;;;4982644;28;20038;-70
2023/01/03 04:30:40;;;;;;;39.30;24.35;;;2.60;99.90;;;;;;5007189;28;20574;-70
2023/01/03 04:33:06;;;;;;;42.90;24.63;;;2.60;99.90;;;;;;4989699;28;20061;-70
2023/01/03 04:35:32;;;;;;;38.33;22.42;;;2.60;99.90;;;;;;5007979;28;20054;-70
2023/01/03 04:37:57;;;;;;;37.03;23.52;;;2.50;99.90;;;;;;5007935;28;20146;-70
2023/01/03 04:40:23;;;;;;;43.38;27.08;;;2.60;99.90;;;;;;5006237;28;20057;-70
2023/01/03 04:45:34;;;;;;;33.08;22.35;;;2.50;99.90;;;;;;5006059;28;20125;-70
2023/01/03 04:48:00;;;;;;;41.60;24.85;;;2.50;99.90;;;;;;4996771;28;20519;-70
2023/01/03 04:50:26;;;;;;;36.38;23.42;;;2.50;99.90;;;;;;4982976;28;20878;-70
2023/01/03 04:52:51;;;;;;;45.63;25.67;;;2.50;99.90;;;;;;5008338;28;20025;-70
2023/01/03 04:55:17;;;;;;;20.10;11.30;;;2.50;99.90;;;;;;5007680;28;20499;-70
2023/01/03 04:57:43;;;;;;;35.90;24.42;;;2.50;99.90;;;;;;5007802;28;20054;-70
2023/01/03 05:00:09;;;;;;;38.78;25.23;;;2.50;99.90;;;;;;5006705;28;20046;-70
2023/01/03 05:02:35;;;;;;;42.25;25.38;;;2.50;99.90;;;;;;4988661;28;20042;-70
2023/01/03 05:05:00;;;;;;;34.50;24.33;;;2.50;99.90;;;;;;4989702;28;20050;-70
2023/01/03 05:07:29;;;;;;;48.53;26.38;;;2.50;99.90;;;;;;5007531;28;20041;-70
2023/01/03 05:09:55;;;;;;;38.85;25.52;;;2.50;99.90;;;;;;5007858;28;20085;-70
2023/01/03 05:12:22;;;;;;;43.40;27.52;;;2.50;99.90;;;;;;5006913;28;20053;-70
2023/01/03 05:14:47;;;;;;;45.78;28.73;;;2.50;99.90;;;;;;5006759;28;20506;-70
2023/01/03 05:17:14;;;;;;;46.53;29.25;;;2.50;99.90;;;;;;5007331;28;20103;-70
2023/01/03 05:27:55;;;;;;;48.92;29.73;;;2.60;99.90;;;;;;4989049;28;20519;-71
2023/01/03 05:30:21;;;;;;;51.90;33.42;;;2.60;99.90;;;;;;4988155;28;20450;-71
2023/01/03 05:32:46;;;;;;;55.85;32.78;;;2.60;99.90;;;;;;5007210;28;20049;-70
2023/01/03 05:35:12;;;;;;;60.22;34.25;;;2.70;99.90;;;;;;5005640;28;20053;-71
2023/01/03 05:37:37;;;;;;;59.50;35.88;;;2.70;99.90;;;;;;4987848;28;20100;-70
2023/01/03 05:40:03;;;;;;;55.35;34.55;;;2.70;99.90;;;;;;5006244;28;20092;-70
2023/01/03 05:42:29;;;;;;;61.08;36.20;;;2.80;99.90;;;;;;4990149;28;20053;-70
2023/01/03 05:44:55;;;;;;;56.47;36.13;;;2.80;99.90;;;;;;4989678;28;20396;-70
2023/01/03 05:47:20;;;;;;;60.42;33.67;;;2.90;99.90;;;;;;5006208;28;20514;-70
2023/01/03 05:49:46;;;;;;;68.07;37.60;;;2.90;99.90;;;;;;5005268;28;20056;-70
2023/01/03 05:52:11;;;;;;;61.40;36.65;;;2.90;99.90;;;;;;5003497;28;20450;-70
2023/01/03 05:54:37;;;;;;;64.10;36.67;;;2.90;99.90;;;;;;5000714;28;20077;-70
2023/01/03 05:57:03;;;;;;;65.07;35.15;;;2.90;99.90;;;;;;5006842;28;20740;-70
2023/01/03 05:59:28;;;;;;;59.03;35.10;;;2.90;99.90;;;;;;4986700;28;20133;-70
2023/01/03 06:01:54;;;;;;;64.00;40.40;;;2.90;99.90;;;;;;4983624;28;20419;-70
2023/01/03 06:04:20;;;;;;;61.67;37.25;;;2.90;99.90;;;;;;5005302;28;20085;-70
2023/01/03 06:06:47;;;;;;;65.53;36.15;;;2.80;99.90;;;;;;4989198;28;20042;-70
2023/01/03 06:09:12;;;;;;;56.35;32.97;;;2.90;99.90;;;;;;5006329;28;20074;-70
2023/01/03 06:11:39;;;;;;;59.72;36.20;;;2.90;99.90;;;;;;5005822;28;20478;-70
2023/01/03 06:14:05;;;;;;;62.78;37.67;;;2.80;99.90;;;;;;5001480;28;20038;-70
2023/01/03 06:19:16;;;;;;;62.22;38.22;;;2.80;99.90;;;;;;5006496;28;20049;-71
2023/01/03 06:21:42;;;;;;;65.35;38.92;;;2.80;99.90;;;;;;5005966;28;20165;-70
2023/01/03 06:24:08;;;;;;;69.93;41.65;;;2.80;99.90;;;;;;5001389;28;20141;-70
2023/01/03 06:26:35;;;;;;;65.22;39.05;;;2.80;99.90;;;;;;5010311;28;20141;-71
2023/01/03 06:29:00;;;;;;;59.10;35.70;;;2.70;99.90;;;;;;5008847;28;20048;-70
2023/01/03 06:31:26;;;;;;;62.33;36.92;;;2.70;99.90;;;;;;5009443;28;20045;-70
2023/01/03 06:33:52;;;;;;;57.28;34.42;;;2.70;99.90;;;;;;4992598;28;20401;-70
2023/01/03 06:36:20;;;;;;;57.17;37.10;;;2.60;99.90;;;;;;5009636;28;20065;-71
2023/01/03 06:38:46;;;;;;;57.17;35.65;;;2.60;99.90;;;;;;4992809;28;20050;-71
2023/01/03 06:41:12;;;;;;;51.10;34.42;;;2.60;99.90;;;;;;5010372;28;20124;-71
2023/01/03 06:43:39;;;;;;;53.13;35.47;;;2.50;99.90;;;;;;5009384;28;20095;-71
2023/01/03 06:54:22;;;;;;;61.33;37.28;;;2.40;99.90;;;;;;4997176;28;20177;-71
2023/01/03 06:56:52;;;;;;;66.60;35.97;;;2.30;99.90;;;;;;4981172;28;20046;-71
2023/01/03 06:59:18;;;;;;;54.65;36.33;;;2.30;99.90;;;;;;4997838;28;20049;-71
2023/01/03 07:01:49;;;;;;;47.72;34.25;;;2.30;99.90;;;;;;5013182;28;20100;-71
2023/01/03 07:04:16;;;;;;;51.85;34.85;;;2.20;99.90;;;;;;5008709;28;20045;-71
2023/01/03 07:06:41;;;;;;;54.00;35.25;;;2.20;99.90;;;;;;4991755;28;20124;-71
2023/01/03 07:09:08;;;;;;;59.33;35.17;;;2.20;99.90;;;;;;5008866;28;20544;-71
2023/01/03 07:11:34;;;;;;;33.63;18.05;;;2.20;99.90;;;;;;4991816;28;20056;-71
2023/01/03 07:14:02;;;;;;;52.90;33.13;;;2.10;99.90;;;;;;5001718;28;20136;-71
2023/01/03 07:16:39;;;;;;;50.38;34.55;;;2.10;99.90;;;;;;5008962;28;20042;-71
2023/01/03 07:19:06;;;;;;;59.70;37.70;;;2.10;99.90;;;;;;4988255;28;20050;-71
2023/01/03 07:21:34;;;;;;;53.33;34.30;;;2.10;99.90;;;;;;4991553;28;20721;-71
2023/01/03 07:24:02;;;;;;;57.00;36.47;;;2.00;99.90;;;;;;5008979;28;20471;-71
2023/01/03 07:26:29;;;;;;;54.95;35.58;;;2.00;99.90;;;;;;5009199;28;20048;-71
2023/01/03 07:28:56;;;;;;;60.45;37.13;;;2.00;99.90;;;;;;5009465;28;20046;-71
2023/01/03 07:31:22;;;;;;;30.83;15.85;;;1.90;99.90;;;;;;4999355;28;20117;-71
2023/01/03 07:33:48;;;;;;;59.78;38.80;;;1.90;99.90;;;;;;4991728;28;20133;-71
2023/01/03 07:36:15;;;;;;;54.13;37.60;;;1.90;99.90;;;;;;4984608;28;20046;-71
2023/01/03 07:38:43;;;;;;;53.53;35.58;;;1.90;99.90;;;;;;4987717;28;20434;-70
2023/01/03 07:41:10;;;;;;;56.10;37.15;;;1.80;99.90;;;;;;4989212;28;20054;-70
2023/01/03 07:43:39;;;;;;;55.85;36.38;;;1.80;99.90;;;;;;4991259;28;20049;-71
2023/01/03 07:46:07;;;;;;;53.72;35.47;;;1.80;99.90;;;;;;4988043;28;20060;-71
2023/01/03 07:48:33;;;;;;;;;;;1.80;99.90;;;;;;4989649;28;20527;-71
2023/01/03 07:51:00;;;;;;;65.13;39.80;;;1.70;99.90;;;;;;4982920;28;19926;-70
2023/01/03 07:53:27;;;;;;;54.63;36.35;;;1.70;99.90;;;;;;4988176;28;20403;-70
2023/01/03 07:55:53;;;;;;;52.15;36.28;;;1.70;99.90;;;;;;4979132;28;20483;-70
2023/01/03 07:58:19;;;;;;;56.70;37.42;;;1.70;99.90;;;;;;4979376;28;20046;-70
2023/01/03 08:00:44;;;;;;;55.47;35.70;;;1.70;99.90;;;;;;4984226;28;20066;-70
2023/01/03 08:03:10;;;;;;;48.53;30.65;;;1.70;99.90;;;;;;4988287;28;20050;-70
2023/01/03 08:05:36;;;;;;;40.58;28.58;;;1.70;99.90;;;;;;4977537;28;20400;-70
2023/01/03 08:08:03;;;;;;;51.85;33.33;;;1.70;99.90;;;;;;4980256;28;20097;-70
2023/01/03 08:13:17;;;;;;;49.85;33.28;;;1.70;99.90;;;;;;4986166;28;20050;-71
2023/01/03 08:15:54;;;;;;;49.05;33.88;;;1.70;99.90;;;;;;4983627;28;20175;-72
2023/01/03 08:18:25;;;;;;;53.65;31.95;;;1.70;99.90;;;;;;4984634;28;20054;-71
2023/01/03 08:20:54;;;;;;;71.00;33.70;;;1.70;99.90;;;;;;4983293;28;20051;-71
2023/01/03 08:23:22;;;;;;;;;;;1.70;99.90;;;;;;4972565;28;20046;-71
2023/01/03 08:25:48;;;;;;;51.83;32.65;;;1.70;99.90;;;;;;4984297;28;19967;-71
2023/01/03 08:28:14;;;;;;;91.35;39.30;;;1.70;99.90;;;;;;4984240;28;20054;-72
2023/01/03 08:30:48;;;;;;;54.88;34.28;;;1.80;99.90;;;;;;4986438;28;20045;-71
2023/01/03 08:33:15;;;;;;;57.80;36.30;;;1.90;99.90;;;;;;4987610;28;20483;-71
2023/01/03 08:35:56;;;;;;;75.00;39.23;;;1.90;99.90;;;;;;4981910;28;20038;-71
2023/01/03 08:38:27;;;;;;;58.95;37.03;;;2.00;99.90;;;;;;4989109;28;20316;-71
2023/01/03 08:40:54;;;;;;;70.10;39.88;;;2.00;99.90;;;;;;5003940;28;20495;-71
2023/01/03 08:43:21;;;;;;;71.20;40.53;;;2.10;99.90;;;;;;5005423;28;20045;-71
2023/01/03 08:45:47;;;;;;;77.50;41.45;;;2.20;99.90;;;;;;5007521;28;20042;-71
2023/01/03 08:48:15;;;;;;;111.38;49.00;;;2.20;99.90;;;;;;4998247;28;20160;-71
2023/01/03 08:50:40;;;;;;;110.78;51.67;;;2.30;99.90;;;;;;4979496;28;20054;-71
2023/01/03 08:53:06;;;;;;;48.92;23.05;;;2.30;99.90;;;;;;4993156;28;20077;-71
2023/01/03 08:55:33;;;;;;;88.88;49.05;;;2.40;99.90;;;;;;5000113;28;20080;-71
2023/01/03 08:57:59;;;;;;;159.82;63.22;;;2.40;99.90;;;;;;5004824;28;20038;-72
2023/01/03 09:00:25;;;;;;;82.63;47.53;;;2.50;99.90;;;;;;5006737;28;20438;-72
2023/01/03 09:02:51;;;;;;;89.75;51.17;;;2.50;99.90;;;;;;5007569;28;20056;-71
2023/01/03 09:05:16;;;;;;;103.65;52.13;;;2.60;99.90;;;;;;5007014;28;20054;-72
2023/01/03 09:07:42;;;;;;;203.05;72.28;;;2.60;99.90;;;;;;5004396;28;20602;-72
2023/01/03 09:10:08;;;;;;;108.78;56.25;;;2.70;99.90;;;;;;4999660;28;20050;-72
2023/01/03 09:12:34;;;;;;;126.00;59.25;;;2.80;99.90;;;;;;4980372;28;20053;-72
2023/01/03 09:15:00;;;;;;;111.72;58.72;;;2.80;99.90;;;;;;4987525;28;20049;-71
2023/01/03 09:17:25;;;;;;;140.18;63.65;;;2.90;99.90;;;;;;4988648;28;20450;-71
2023/01/03 09:19:51;;;;;;;39.15;19.85;;;2.90;99.90;;;;;;5000571;28;20041;-72
2023/01/03 09:22:17;;;;;;;169.15;71.43;;;3.00;99.90;;;;;;4985763;28;20078;-71
2023/01/03 09:24:42;;;;;;;169.70;74.07;;;3.00;99.90;;;;;;5002325;28;20039;-71
2023/01/03 09:27:08;;;;;;;136.77;65.22;;;3.00;99.90;;;;;;5006569;28;20049;-71
2023/01/03 09:29:33;;;;;;;126.93;60.28;;;3.10;99.90;;;;;;5005679;28;20495;-72
2023/01/03 09:32:02;;;;;;;166.35;68.85;;;3.10;99.90;;;;;;5005836;28;20046;-71
2023/01/03 09:34:28;;;;;;;138.20;62.03;;;3.20;99.90;;;;;;5007283;28;20053;-71
2023/01/03 09:36:53;;;;;;;145.60;68.10;;;3.30;99.90;;;;;;4989107;28;20050;-71
2023/01/03 09:39:19;;;;;;;132.75;64.05;;;3.40;99.90;;;;;;5000926;28;20125;-71
2023/01/03 09:43:11;;;;;;;128.10;63.05;;;3.40;99.90;;;;;;5002023;28;20663;-71
2023/01/03 09:44:31;;;;;;;131.95;63.17;;;3.50;99.90;;;;;;5003045;28;20058;-71
2023/01/03 09:46:58;;;;;;;141.23;64.38;;;3.60;99.90;;;;;;4998787;28;20537;-71
2023/01/03 09:49:23;;;;;;;126.90;63.05;;;3.60;99.90;;;;;;5003250;28;20046;-71
2023/01/03 10:06:22;;;;;;;134.50;66.55;;;4.00;99.90;;;;;;5001683;28;20165;-71
2023/01/03 10:09:06;;;;;;;124.00;62.35;;;4.10;99.90;;;;;;4995958;28;20061;-71
2023/01/03 10:11:42;;;;;;;126.97;62.05;;;4.10;99.90;;;;;;5006001;28;20521;-71
2023/01/03 10:14:10;;;;;;;138.85;63.58;;;4.10;99.90;;;;;;4998496;28;20050;-70
2023/01/03 10:16:54;;;;;;;;;;;4.10;99.90;;;;;;5002711;28;20459;-71
2023/01/03 10:19:39;;;;;;;135.88;66.35;;;4.10;99.90;;;;;;5009984;28;19943;-71
2023/01/03 10:22:27;;;;;;;145.80;69.13;;;4.20;99.90;;;;;;4988148;28;20074;-70
2023/01/03 10:25:12;;;;;;;121.63;66.22;;;4.20;99.90;;;;;;5003398;28;20089;-71
2023/01/03 10:27:43;;;;;;;132.02;65.43;;;4.20;99.90;;;;;;4998804;28;20081;-71
2023/01/03 10:30:16;;;;;;;148.07;68.90;;;4.20;99.90;;;;;;5003474;28;20104;-70
2023/01/03 10:33:18;;;;;;;126.07;66.70;;;4.30;99.90;;;;;;5010623;28;20038;-70
2023/01/03 10:35:43;;;;;;;139.77;67.15;;;4.30;99.90;;;;;;5005288;28;20049;-71
2023/01/03 10:38:09;;;;;;;136.10;66.43;;;4.30;99.90;;;;;;5008167;28;20066;-71
2023/01/03 10:40:43;;;;;;;137.02;68.03;;;4.30;99.90;;;;;;5009226;28;20042;-71
2023/01/03 10:43:28;;;;;;;145.82;69.45;;;4.40;99.90;;;;;;5009625;28;20058;-71
2023/01/03 10:45:58;;;;;;;152.15;74.38;;;4.40;99.90;;;;;;5010096;28;20539;-71
2023/01/03 10:48:32;;;;;;;164.98;82.30;;;4.40;99.90;;;;;;5009337;28;20046;-71
2023/01/03 10:50:58;;;;;;;141.32;72.50;;;4.40;99.90;;;;;;5010427;28;20042;-71
2023/01/03 10:53:23;;;;;;;158.75;73.43;;;4.50;99.90;;;;;;4991876;28;20950;-71
2023/01/03 10:55:53;;;;;;;149.13;77.43;;;4.50;99.90;;;;;;5004541;28;20046;-71
2023/01/03 10:58:25;;;;;;;162.20;74.65;;;4.60;99.90;;;;;;4987657;28;20407;-71
2023/01/03 11:00:53;;;;;;;150.95;75.55;;;4.60;99.90;;;;;;5006235;28;20073;-71
2023/01/03 11:03:23;;;;;;;168.50;77.20;;;4.70;99.90;;;;;;5005806;28;20072;-71
2023/01/03 11:06:13;;;;;;;181.65;89.55;;;4.80;99.90;;;;;;4989619;28;20126;-71
2023/01/03 11:08:45;;;;;;;154.07;75.50;;;4.80;99.90;;;;;;4990264;28;20517;-71
2023/01/03 11:11:35;;;;;;;161.07;73.13;;;4.90;99.90;;;;;;5000990;28;20094;-71
2023/01/03 11:14:22;;;;;;;164.15;79.00;;;5.00;99.90;;;;;;4989590;28;20037;-71
2023/01/03 11:16:54;;;;;;;163.73;77.70;;;5.10;99.90;;;;;;4986008;28;20050;-71
2023/01/03 11:19:24;;;;;;;141.50;68.30;;;5.10;99.90;;;;;;5008744;28;20042;-71
2023/01/03 11:22:03;;;;;;;142.88;68.72;;;5.20;99.90;;;;;;5005521;28;20050;-71
2023/01/03 11:25:21;;;;;;;135.45;71.78;;;5.30;99.90;;;;;;5006564;28;20058;-70
2023/01/03 11:28:16;;;;;;;127.40;70.03;;;5.30;99.90;;;;;;4989000;28;20141;-71
2023/01/03 11:31:13;;;;;;;143.20;72.15;;;5.30;99.90;;;;;;5005874;28;20569;-70
2023/01/03 11:33:51;;;;;;;122.70;66.03;;;5.40;99.90;;;;;;4991529;28;20056;-70
2023/01/03 11:36:41;;;;;;;126.75;62.75;;;5.50;99.90;;;;;;4989826;28;20089;-70
2023/01/03 11:39:30;;;;;;;102.97;58.35;;;5.60;99.90;;;;;;4997954;28;20049;-70
2023/01/03 11:42:22;;;;;;;103.40;59.88;;;5.60;99.90;;;;;;5008813;28;20045;-70
2023/01/03 11:45:08;;;;;;;101.75;57.35;;;5.70;99.90;;;;;;5008226;28;20681;-70
2023/01/03 11:47:53;;;;;;;115.03;61.47;;;5.80;99.90;;;;;;4929524;28;20046;-70
2023/01/03 11:50:47;;;;;;;123.05;68.22;;;5.80;99.90;;;;;;5008328;28;20054;-70
2023/01/03 11:53:33;;;;;;;582.83;302.55;;;5.80;99.90;;;;;;4990830;28;20046;-70
2023/01/03 11:56:24;;;;;;;248.73;125.57;;;5.80;99.90;;;;;;5009219;28;20045;-70
2023/01/03 11:59:12;;;;;;;123.20;70.82;;;5.80;99.90;;;;;;4982340;28;20531;-70
2023/01/03 12:02:23;;;;;;;112.65;63.00;;;5.90;99.90;;;;;;5008178;28;20052;-70
2023/01/03 12:05:01;;;;;;;99.00;58.35;;;5.90;99.90;;;;;;4997262;28;20774;-70
2023/01/03 12:08:00;;;;;;;115.47;67.88;;;5.90;99.90;;;;;;5006797;28;20064;-70
2023/01/03 12:10:34;;;;;;;110.22;64.47;;;5.90;99.90;;;;;;5007630;28;20050;-70
2023/01/03 12:13:22;;;;;;;102.93;58.67;;;5.90;99.90;;;;;;5007744;28;20092;-70
2023/01/03 12:15:50;;;;;;;;;;;5.90;99.90;;;;;;5006116;28;20045;-70
2023/01/03 12:18:48;;;;;;;96.13;54.60;;;6.00;99.90;;;;;;4989686;28;19925;-70
2023/01/03 12:21:18;;;;;;;90.40;53.97;;;6.00;99.90;;;;;;4957329;28;20132;-70
2023/01/03 12:23:57;;;;;;;78.15;48.53;;;6.00;99.90;;;;;;5002689;28;20129;-70
2023/01/03 12:26:25;;;;;;;81.93;50.35;;;6.00;99.90;;;;;;5007382;28;20053;-71
2023/01/03 12:29:03;;;;;;;83.93;48.97;;;6.00;99.90;;;;;;5008272;28;20099;-70
2023/01/03 12:31:44;;;;;;;83.53;47.42;;;6.00;99.90;;;;;;4963302;28;20072;-70
2023/01/03 12:34:33;;;;;;;80.53;47.80;;;6.10;99.90;;;;;;5008619;28;20076;-70
2023/01/03 12:37:07;;;;;;;68.63;43.25;;;6.10;99.90;;;;;;5004551;28;20057;-70
2023/01/03 12:39:56;;;;;;;77.55;45.10;;;6.10;99.90;;;;;;5001328;28;20052;-70
2023/01/03 12:42:35;;;;;;;70.38;43.33;;;6.10;99.90;;;;;;4989469;28;20050;-70
2023/01/03 12:45:07;;;;;;;68.93;43.70;;;6.20;99.90;;;;;;4991185;28;20060;-70
2023/01/03 12:47:48;;;;;;;61.75;39.28;;;6.20;99.90;;;;;;5008893;28;20124;-71
2023/01/03 12:50:21;;;;;;;62.15;37.58;;;6.20;99.90;;;;;;5008604;28;20056;-70
2023/01/03 12:52:59;;;;;;;68.00;37.45;;;6.20;99.90;;;;;;5002520;28;20054;-70
2023/01/03 12:55:44;;;;;;;;;;;6.20;99.90;;;;;;4986775;28;20050;-70
2023/01/03 12:58:21;;;;;;;66.03;37.35;;;6.20;99.90;;;;;;4989608;28;19936;-70
2023/01/03 13:00:59;;;;;;;64.40;37.03;;;6.30;99.90;;;;;;4991697;28;20046;-70
2023/01/03 13:03:39;;;;;;;66.13;36.35;;;6.30;99.90;;;;;;4996257;28;20042;-70
2023/01/03 13:06:35;;;;;;;60.72;38.05;;;6.30;99.90;;;;;;4999453;28;20049;-70
2023/01/03 13:09:06;;;;;;;83.13;39.85;;;6.30;99.90;;;;;;4999656;28;20054;-70
2023/01/03 13:11:51;;;;;;;61.67;37.40;;;6.30;99.90;;;;;;5007598;28;20782;-70
2023/01/03 13:14:23;;;;;;;67.75;40.53;;;6.40;99.90;;;;;;5005512;28;20042;-70
2023/01/03 13:17:03;;;;;;;58.00;35.25;;;6.40;99.90;;;;;;5003504;28;20040;-71
2023/01/03 13:19:35;;;;;;;67.88;37.20;;;6.40;99.90;;;;;;4981708;28;20141;-70
2023/01/03 13:22:02;;;;;;;73.72;44.20;;;6.40;99.90;;;;;;4979541;28;20061;-70
2023/01/03 13:24:42;;;;;;;84.07;42.55;;;6.40;99.90;;;;;;5001171;28;20125;-70
2023/01/03 13:27:21;;;;;;;67.18;34.72;;;6.40;99.90;;;;;;4999523;28;20104;-70
2023/01/03 13:29:50;;;;;;;64.80;36.03;;;6.40;99.90;;;;;;5003720;28;20169;-70
2023/01/03 13:32:25;;;;;;;66.93;34.53;;;6.40;99.90;;;;;;4988730;28;20507;-70
2023/01/03 13:35:17;;;;;;;67.80;36.72;;;6.40;99.90;;;;;;5003746;28;20049;-71
2023/01/03 13:37:53;;;;;;;62.60;33.33;;;6.40;99.90;;;;;;4983801;28;20070;-70
2023/01/03 13:40:26;;;;;;;63.10;34.83;;;6.40;99.90;;;;;;4985932;28;20058;-70
2023/01/03 13:43:07;;;;;;;56.40;34.15;;;6.50;99.90;;;;;;4971032;28;20050;-70
2023/01/03 13:45:36;;;;;;;66.93;36.85;;;6.50;99.90;;;;;;4981781;28;20046;-70
2023/01/03 13:48:30;;;;;;;56.67;33.35;;;6.50;99.90;;;;;;4985910;28;20057;-70
2023/01/03 13:51:13;;;;;;;60.58;37.03;;;6.50;99.90;;;;;;4983556;28;20112;-70
2023/01/03 13:53:57;;;;;;;59.22;35.03;;;6.50;99.90;;;;;;4982937;28;20050;-70
2023/01/03 13:56:25;;;;;;;65.05;35.83;;;6.50;99.90;;;;;;4983467;28;20412;-70
2023/01/03 13:58:57;;;;;;;61.85;33.35;;;6.50;99.90;;;;;;4988172;28;20534;-71
2023/01/03 14:01:41;;;;;;;50.42;30.77;;;6.60;99.90;;;;;;4987555;28;20050;-70
2023/01/03 14:04:28;;;;;;;57.20;31.95;;;6.60;99.90;;;;;;4983704;28;20065;-70